Time;durP1;ratioP1;P1;durP2;ratioP2;P2;SDS_P1;SDS_P2;PMS_P1;PMS_P2;Temp;Humidity;BMP_temperature;BMP_pressure;BME280_temperature;BME280_humidity;BME280_pressure;Samples;Min_cycle;Max_cycle;Signal;HPM_P1;HPM_P2
2020/12/13 00:01:17;;;;;;;55.47;25.23;;;8.80;99.90;;;;;;5033891;28;20404;-73
2020/12/13 00:03:47;;;;;;;60.80;25.00;;;8.80;99.90;;;;;;5051399;28;20474;-72
2020/12/13 00:06:14;;;;;;;51.10;22.70;;;8.80;99.90;;;;;;5036443;28;20435;-72
2020/12/13 00:08:39;;;;;;;57.83;24.03;;;8.80;99.90;;;;;;5074571;28;20865;-72
2020/12/13 00:11:05;;;;;;;46.50;23.20;;;8.80;99.90;;;;;;5058906;28;20481;-72
2020/12/13 00:13:36;;;;;;;51.63;23.13;;;8.80;99.90;;;;;;5076368;28;20461;-72
2020/12/13 00:16:02;;;;;;;47.47;23.23;;;8.90;99.90;;;;;;5075187;28;20452;-73
2020/12/13 00:18:28;;;;;;;43.57;20.97;;;9.00;99.90;;;;;;5058897;28;20483;-72
2020/12/13 00:20:54;;;;;;;41.70;21.33;;;8.90;99.90;;;;;;5076570;28;20891;-72
2020/12/13 00:23:20;;;;;;;45.63;21.17;;;9.00;99.90;;;;;;5041894;28;20461;-72
2020/12/13 00:25:46;;;;;;;43.40;21.37;;;8.90;99.90;;;;;;5057866;28;20442;-72
2020/12/13 00:28:15;;;;;;;47.53;20.07;;;8.90;99.90;;;;;;5058311;28;20460;-73
2020/12/13 00:30:42;;;;;;;45.25;22.60;;;8.90;99.90;;;;;;5041325;28;20862;-73
2020/12/13 00:33:08;;;;;;;47.67;20.53;;;8.90;99.90;;;;;;5058451;28;20689;-73
2020/12/13 00:35:34;;;;;;;40.77;21.67;;;9.00;99.90;;;;;;5057938;28;20498;-73
2020/12/13 00:38:00;;;;;;;45.97;21.03;;;8.90;99.90;;;;;;5047144;28;20502;-73
2020/12/13 00:40:26;;;;;;;38.30;18.93;;;8.90;99.90;;;;;;5041679;28;20441;-73
2020/12/13 00:42:52;;;;;;;39.10;19.30;;;8.90;99.90;;;;;;5057820;28;20425;-73
2020/12/13 00:45:18;;;;;;;51.13;21.97;;;8.90;99.90;;;;;;5041659;28;20444;-73
2020/12/13 00:47:46;;;;;;;46.37;21.13;;;8.90;99.90;;;;;;5075991;28;20516;-73
2020/12/13 00:50:12;;;;;;;41.43;20.00;;;8.90;99.90;;;;;;5057934;28;20954;-73
2020/12/13 00:52:41;;;;;;;44.57;20.87;;;8.90;99.90;;;;;;5057924;28;20445;-73
2020/12/13 00:55:12;;;;;;;39.50;19.70;;;8.90;99.90;;;;;;5037631;28;20943;-73
2020/12/13 00:57:38;;;;;;;44.90;20.87;;;8.90;99.90;;;;;;5054369;28;20399;-73
2020/12/13 01:00:07;;;;;;;45.17;21.00;;;8.90;99.90;;;;;;5074557;28;20434;-73
2020/12/13 01:02:35;;;;;;;43.60;20.90;;;8.90;99.90;;;;;;5075590;28;20410;-73
2020/12/13 01:05:06;;;;;;;39.40;19.70;;;8.90;99.90;;;;;;5057173;28;20465;-73
2020/12/13 01:07:32;;;;;;;44.70;21.67;;;8.90;99.90;;;;;;5057070;28;20525;-73
2020/12/13 01:10:00;;;;;;;45.33;22.70;;;8.90;99.90;;;;;;5074173;28;20922;-73
2020/12/13 01:12:26;;;;;;;41.70;20.37;;;8.90;99.90;;;;;;5065194;28;20463;-73
2020/12/13 01:14:52;;;;;;;51.87;22.03;;;8.90;99.90;;;;;;5057394;28;20517;-73
2020/12/13 01:17:20;;;;;;;49.90;22.67;;;8.90;99.90;;;;;;5075060;28;20499;-73
2020/12/13 01:19:47;;;;;;;44.13;22.20;;;8.90;99.90;;;;;;5075204;28;20910;-74
2020/12/13 01:22:16;;;;;;;50.60;20.63;;;8.90;99.90;;;;;;5057185;28;20503;-73
2020/12/13 01:24:42;;;;;;;49.73;21.60;;;8.90;99.90;;;;;;5056789;28;20470;-73
2020/12/13 01:27:08;;;;;;;53.60;23.60;;;8.90;99.90;;;;;;5075110;28;20473;-73
2020/12/13 01:29:37;;;;;;;47.07;21.50;;;8.90;99.90;;;;;;5073784;28;20400;-73
2020/12/13 01:32:05;;;;;;;46.10;22.57;;;8.90;99.90;;;;;;5057314;28;20517;-73
2020/12/13 01:34:31;;;;;;;55.90;23.03;;;9.00;99.90;;;;;;5073564;28;20449;-73
2020/12/13 01:36:59;;;;;;;45.90;23.10;;;9.00;99.90;;;;;;5071615;28;20521;-73
2020/12/13 01:39:25;;;;;;;51.13;23.90;;;9.00;99.90;;;;;;5047908;28;20837;-73
2020/12/13 01:41:59;;;;;;;47.10;22.10;;;9.00;99.90;;;;;;5037354;28;20494;-73
2020/12/13 01:44:33;;;;;;;49.50;23.30;;;9.00;99.90;;;;;;5066038;28;20548;-74
2020/12/13 01:47:04;;;;;;;45.57;23.57;;;9.00;99.90;;;;;;5056983;28;20919;-73
2020/12/13 01:49:34;;;;;;;48.37;22.30;;;9.10;99.90;;;;;;5074539;28;20922;-73
2020/12/13 01:54:32;;;;;;;55.17;25.40;;;9.00;99.90;;;;;;5040029;28;20835;-73
2020/12/13 01:57:01;;;;;;;54.63;23.87;;;9.00;99.90;;;;;;5056536;28;20425;-73
2020/12/13 01:59:35;;;;;;;49.90;25.07;;;9.00;99.90;;;;;;5040284;28;20524;-73
2020/12/13 02:02:04;;;;;;;49.70;24.20;;;9.00;99.90;;;;;;5056698;28;20410;-73
2020/12/13 02:04:34;;;;;;;58.27;25.57;;;9.00;99.90;;;;;;5056445;28;20453;-73
2020/12/13 02:07:02;;;;;;;52.30;24.83;;;9.00;99.90;;;;;;5039916;28;20524;-73
2020/12/13 02:09:28;;;;;;;49.60;24.00;;;9.00;99.90;;;;;;5073077;28;20426;-73
2020/12/13 02:11:54;;;;;;;56.97;27.17;;;9.00;99.90;;;;;;5040125;28;20402;-73
2020/12/13 02:14:23;;;;;;;53.20;25.03;;;9.10;99.90;;;;;;5056097;28;20429;-73
2020/12/13 02:16:51;;;;;;;52.93;24.53;;;9.10;99.90;;;;;;5073975;28;20425;-74
2020/12/13 02:19:20;;;;;;;54.97;26.40;;;9.10;99.90;;;;;;5056055;28;20407;-73
2020/12/13 02:21:51;;;;;;;62.47;27.63;;;9.00;99.90;;;;;;5024173;28;20433;-73
2020/12/13 02:24:21;;;;;;;57.93;26.80;;;9.00;99.90;;;;;;5005508;28;20999;-73
2020/12/13 02:26:50;;;;;;;61.87;28.80;;;9.00;99.90;;;;;;5019489;28;20470;-73
2020/12/13 02:29:16;;;;;;;66.00;29.20;;;9.00;99.90;;;;;;5052031;28;20825;-73
2020/12/13 02:31:42;;;;;;;72.00;30.87;;;9.00;99.90;;;;;;5036256;28;20433;-73
2020/12/13 02:34:09;;;;;;;67.10;30.57;;;9.00;99.90;;;;;;5054016;28;20901;-73
2020/12/13 02:36:37;;;;;;;63.00;29.17;;;9.00;99.90;;;;;;5054327;28;20451;-73
2020/12/13 02:39:07;;;;;;;66.27;30.43;;;9.00;99.90;;;;;;5039755;28;20430;-73
2020/12/13 02:41:35;;;;;;;74.93;31.40;;;9.00;99.90;;;;;;5056292;28;20479;-73
2020/12/13 02:44:03;;;;;;;72.30;32.73;;;9.00;99.90;;;;;;5038917;28;20541;-73
2020/12/13 02:46:30;;;;;;;63.13;31.20;;;9.00;99.90;;;;;;5035688;28;20496;-73
2020/12/13 02:48:56;;;;;;;66.33;30.20;;;8.90;99.90;;;;;;5046428;28;20509;-73
2020/12/13 02:51:22;;;;;;;65.17;30.73;;;8.90;99.90;;;;;;5073643;28;20567;-73
2020/12/13 02:53:48;;;;;;;68.10;30.70;;;8.90;99.90;;;;;;5039007;28;20477;-73
2020/12/13 02:56:16;;;;;;;89.07;34.90;;;8.90;99.90;;;;;;5055872;28;20802;-73
2020/12/13 02:58:42;;;;;;;74.13;32.83;;;8.90;99.90;;;;;;5073119;28;20406;-73
2020/12/13 03:01:10;;;;;;;74.60;32.00;;;8.80;99.90;;;;;;5055451;28;20424;-73
2020/12/13 03:03:39;;;;;;;67.03;32.27;;;8.90;99.90;;;;;;5055450;28;21012;-73
2020/12/13 03:06:05;;;;;;;67.87;32.60;;;8.90;99.90;;;;;;5073256;28;20445;-73
2020/12/13 03:08:33;;;;;;;82.53;37.13;;;8.90;99.90;;;;;;5052079;28;20429;-73
2020/12/13 03:10:59;;;;;;;73.60;33.47;;;8.80;99.90;;;;;;5073350;28;20453;-73
2020/12/13 03:13:25;;;;;;;73.07;34.90;;;8.90;99.90;;;;;;5072959;28;20469;-73
2020/12/13 03:15:51;;;;;;;75.73;33.67;;;8.90;99.90;;;;;;5038774;28;20486;-73
2020/12/13 03:18:17;;;;;;;77.37;33.10;;;8.90;99.90;;;;;;5055487;28;20461;-73
2020/12/13 03:20:43;;;;;;;69.77;31.00;;;8.90;99.90;;;;;;5055461;28;20514;-73
2020/12/13 03:23:12;;;;;;;67.03;34.50;;;8.90;99.90;;;;;;5055369;28;20464;-73
2020/12/13 03:25:38;;;;;;;66.00;32.17;;;8.90;99.90;;;;;;5054924;28;20914;-73
2020/12/13 03:28:06;;;;;;;59.13;32.40;;;8.90;99.90;;;;;;5071589;28;20549;-73
2020/12/13 03:30:32;;;;;;;69.73;31.73;;;8.80;99.90;;;;;;5072827;28;20470;-73
2020/12/13 03:32:58;;;;;;;74.90;33.90;;;8.80;99.90;;;;;;5039527;28;21000;-73
2020/12/13 03:35:24;;;;;;;65.57;33.80;;;8.90;99.90;;;;;;5055004;28;20446;-73
2020/12/13 03:37:50;;;;;;;64.77;33.83;;;8.90;99.90;;;;;;5037667;28;20422;-73
2020/12/13 03:40:16;;;;;;;69.00;32.03;;;8.90;99.90;;;;;;5054023;28;20969;-73
2020/12/13 03:42:43;;;;;;;65.13;31.57;;;8.90;99.90;;;;;;5072630;28;20429;-73
2020/12/13 03:45:09;;;;;;;63.70;32.37;;;8.90;99.90;;;;;;5054833;28;20474;-73
2020/12/13 03:47:36;;;;;;;59.70;30.70;;;8.90;99.90;;;;;;5071694;28;20421;-73
2020/12/13 03:50:04;;;;;;;67.40;32.47;;;8.90;99.90;;;;;;5071406;28;20793;-73
2020/12/13 03:52:34;;;;;;;60.40;30.50;;;8.90;99.90;;;;;;5072398;28;20934;-73
2020/12/13 03:55:00;;;;;;;56.17;28.67;;;8.90;99.90;;;;;;5038169;28;20460;-73
2020/12/13 03:57:26;;;;;;;56.90;30.90;;;8.90;99.90;;;;;;5054980;28;20445;-74
2020/12/13 03:59:53;;;;;;;61.97;30.87;;;8.90;99.90;;;;;;5038266;28;20818;-73
2020/12/13 04:02:19;;;;;;;56.20;28.73;;;8.90;99.90;;;;;;5072692;28;20422;-73
2020/12/13 04:04:47;;;;;;;59.73;30.20;;;8.90;99.90;;;;;;5072297;28;20470;-73
2020/12/13 04:07:13;;;;;;;56.87;29.60;;;8.90;99.90;;;;;;5054699;28;21007;-73
2020/12/13 04:09:39;;;;;;;65.20;31.67;;;8.90;99.90;;;;;;5054835;28;20418;-73
2020/12/13 04:12:09;;;;;;;59.73;29.83;;;8.90;99.90;;;;;;5071228;28;20406;-73
2020/12/13 04:14:37;;;;;;;53.90;28.10;;;8.90;99.90;;;;;;5072231;28;20449;-73
2020/12/13 04:17:03;;;;;;;55.13;28.70;;;8.90;99.90;;;;;;5054593;28;20414;-74
2020/12/13 04:19:31;;;;;;;53.30;28.00;;;8.90;99.90;;;;;;5072489;28;20456;-73
2020/12/13 04:21:58;;;;;;;55.83;28.97;;;8.90;99.90;;;;;;5071182;28;20422;-73
2020/12/13 04:24:24;;;;;;;55.30;30.40;;;8.90;99.90;;;;;;5054366;28;20457;-73
2020/12/13 04:26:50;;;;;;;52.80;27.20;;;8.90;99.90;;;;;;5049073;28;20492;-74
2020/12/13 04:29:16;;;;;;;54.43;27.97;;;8.90;99.90;;;;;;5034648;28;20407;-74
2020/12/13 04:31:47;;;;;;;52.20;27.10;;;9.00;99.90;;;;;;5067773;28;20493;-73
2020/12/13 04:34:13;;;;;;;51.90;27.57;;;9.00;99.90;;;;;;5052784;28;20411;-73
2020/12/13 04:36:39;;;;;;;48.63;27.37;;;9.00;99.90;;;;;;5018011;28;20411;-73
2020/12/13 04:39:07;;;;;;;52.47;28.20;;;9.00;99.90;;;;;;5051051;28;20438;-73
2020/12/13 04:41:34;;;;;;;58.25;28.40;;;9.00;99.90;;;;;;5034368;28;20435;-73
2020/12/13 04:44:05;;;;;;;52.78;26.50;;;9.00;99.90;;;;;;5051034;28;20215;-73
2020/12/13 04:46:31;;;;;;;51.00;26.63;;;8.90;99.90;;;;;;5017911;28;20291;-73
2020/12/13 04:48:57;;;;;;;58.03;28.87;;;8.90;99.90;;;;;;5051193;28;20825;-73
2020/12/13 04:51:26;;;;;;;59.50;29.43;;;8.90;99.90;;;;;;5052337;28;20427;-73
2020/12/13 04:54:05;;;;;;;50.35;27.02;;;9.00;99.90;;;;;;5021605;28;20441;-73
2020/12/13 04:56:36;;;;;;;64.30;28.10;;;9.00;99.90;;;;;;5035341;28;20200;-73
2020/12/13 04:59:05;;;;;;;55.97;27.90;;;9.00;99.90;;;;;;5070244;28;20427;-73
2020/12/13 05:01:34;;;;;;;53.77;28.37;;;9.00;99.90;;;;;;5037298;28;20442;-73
2020/12/13 05:04:00;;;;;;;65.50;28.50;;;8.90;99.90;;;;;;5029934;28;20463;-73
2020/12/13 05:06:26;;;;;;;53.90;28.80;;;9.00;99.90;;;;;;5055258;28;20484;-73
2020/12/13 05:08:52;;;;;;;64.20;28.70;;;9.00;99.90;;;;;;5054159;28;20416;-73
2020/12/13 05:11:22;;;;;;;53.70;27.50;;;9.00;99.90;;;;;;5055248;28;20203;-74
2020/12/13 05:13:51;;;;;;;62.13;28.27;;;8.90;99.90;;;;;;5054145;28;20196;-73
2020/12/13 05:16:17;;;;;;;58.07;26.13;;;9.00;99.90;;;;;;5053856;28;20505;-73
2020/12/13 05:18:46;;;;;;;66.03;29.23;;;9.00;99.90;;;;;;5055273;28;20484;-73
2020/12/13 05:21:21;;;;;;;52.33;26.20;;;8.90;99.90;;;;;;5070847;28;20564;-73
2020/12/13 05:23:52;;;;;;;50.27;25.73;;;8.90;99.90;;;;;;5054818;28;21028;-73
2020/12/13 05:26:24;;;;;;;55.00;26.67;;;9.00;99.90;;;;;;5056951;28;20462;-73
2020/12/13 05:28:52;;;;;;;55.33;25.07;;;8.90;99.90;;;;;;5075413;28;20484;-73
2020/12/13 05:31:22;;;;;;;50.00;26.83;;;9.00;99.90;;;;;;5057720;28;20417;-73
2020/12/13 05:33:55;;;;;;;48.37;25.43;;;8.90;99.90;;;;;;5075094;28;20402;-73
2020/12/13 05:36:21;;;;;;;48.00;24.80;;;8.90;99.90;;;;;;5057516;28;21006;-73
2020/12/13 05:38:47;;;;;;;55.13;25.90;;;9.00;99.90;;;;;;5040760;28;20800;-74
2020/12/13 05:41:18;;;;;;;49.47;24.95;;;9.00;99.90;;;;;;5048934;28;20438;-74
2020/12/13 05:44:04;;;;;;;51.47;25.65;;;9.00;99.90;;;;;;5037180;28;20200;-73
2020/12/13 05:49:24;;;;;;;48.43;25.50;;;9.00;99.90;;;;;;5060334;28;20426;-73
2020/12/13 05:51:52;;;;;;;47.45;25.98;;;8.90;99.90;;;;;;5057350;28;20834;-73
2020/12/13 05:54:23;;;;;;;45.70;24.67;;;9.00;99.90;;;;;;5040117;28;20176;-73
2020/12/13 05:57:01;;;;;;;43.90;23.67;;;8.90;99.90;;;;;;5056822;28;20488;-73
2020/12/13 05:59:31;;;;;;;49.00;23.38;;;8.80;99.90;;;;;;5039928;28;20421;-73
2020/12/13 06:02:01;;;;;;;51.97;24.77;;;8.90;99.90;;;;;;5056610;28;20186;-73
2020/12/13 06:04:29;;;;;;;45.07;23.13;;;8.90;99.90;;;;;;5038678;28;20519;-73
2020/12/13 06:06:58;;;;;;;47.80;23.13;;;8.90;99.90;;;;;;5056294;28;20422;-73
2020/12/13 06:09:36;;;;;;;47.97;22.67;;;8.90;99.90;;;;;;5063400;28;20997;-73
2020/12/13 06:12:11;;;;;;;44.42;22.05;;;8.90;99.90;;;;;;5036874;28;20447;-73
2020/12/13 06:14:38;;;;;;;46.33;22.75;;;8.90;99.90;;;;;;5053294;28;20217;-74
2020/12/13 06:17:04;;;;;;;34.27;21.60;;;8.90;99.90;;;;;;5036764;28;20531;-73
2020/12/13 06:19:32;;;;;;;38.20;21.27;;;8.90;99.90;;;;;;5054125;28;20431;-73
2020/12/13 06:22:00;;;;;;;39.90;21.60;;;8.90;99.90;;;;;;5036617;28;20514;-73
2020/12/13 06:24:26;;;;;;;36.13;18.80;;;8.90;99.90;;;;;;5036557;28;20451;-73
2020/12/13 06:26:54;;;;;;;34.20;18.90;;;8.80;99.90;;;;;;5035682;28;20888;-73
2020/12/13 06:29:21;;;;;;;33.13;18.02;;;8.80;99.90;;;;;;5035440;28;20943;-73
2020/12/13 06:31:49;;;;;;;39.47;21.05;;;8.80;99.90;;;;;;5053291;28;20180;-73
2020/12/13 06:34:23;;;;;;;36.58;19.88;;;8.80;99.90;;;;;;5036740;28;20653;-73
2020/12/13 06:36:52;;;;;;;39.00;21.45;;;8.70;99.90;;;;;;5051614;28;20193;-73
2020/12/13 06:39:21;;;;;;;41.30;21.83;;;8.80;99.90;;;;;;5035073;28;20200;-73
2020/12/13 06:41:50;;;;;;;45.67;22.03;;;8.70;99.90;;;;;;5052562;28;20185;-73
2020/12/13 06:44:17;;;;;;;41.80;24.00;;;8.70;99.90;;;;;;5034587;28;20983;-73
2020/12/13 06:46:47;;;;;;;49.33;23.60;;;8.70;99.90;;;;;;5034771;28;20454;-73
2020/12/13 06:49:15;;;;;;;43.70;23.27;;;8.70;99.90;;;;;;5051429;28;20462;-73
2020/12/13 06:51:47;;;;;;;46.35;24.35;;;8.60;99.90;;;;;;5035133;28;20407;-74
2020/12/13 06:54:18;;;;;;;47.90;28.08;;;8.60;99.90;;;;;;5018587;28;20199;-73
2020/12/13 06:56:47;;;;;;;50.70;25.20;;;8.60;99.90;;;;;;5018679;28;20598;-73
2020/12/13 06:59:14;;;;;;;43.38;23.27;;;8.60;99.90;;;;;;5053027;28;20491;-73
2020/12/13 07:01:43;;;;;;;44.90;26.35;;;8.60;99.90;;;;;;5018658;28;20187;-73
2020/12/13 07:04:24;;;;;;;45.73;25.83;;;8.60;99.90;;;;;;5051251;28;20250;-73
2020/12/13 07:06:59;;;;;;;43.42;24.48;;;8.60;99.90;;;;;;5052582;28;20446;-73
2020/12/13 07:09:28;;;;;;;44.65;24.52;;;8.50;99.90;;;;;;5051260;28;20187;-73
2020/12/13 07:11:55;;;;;;;50.20;25.70;;;8.60;99.90;;;;;;5035230;28;20165;-73
2020/12/13 07:14:29;;;;;;;41.57;24.83;;;8.60;99.90;;;;;;5051826;28;20262;-73
2020/12/13 07:19:33;;;;;;;48.17;25.30;;;8.50;99.90;;;;;;5052422;28;20179;-73
2020/12/13 07:22:13;;;;;;;42.58;24.23;;;8.50;99.90;;;;;;5051359;28;20680;-73
2020/12/13 07:24:41;;;;;;;38.65;23.45;;;8.40;99.90;;;;;;5034123;28;20302;-73
2020/12/13 07:27:08;;;;;;;41.77;25.33;;;8.40;99.90;;;;;;5026382;28;619698;-73
2020/12/13 07:29:36;;;;;;;50.35;24.83;;;8.40;99.90;;;;;;5031963;28;20235;-73
2020/12/13 07:32:06;;;;;;;54.05;26.58;;;8.30;99.90;;;;;;5051462;28;20185;-73
2020/12/13 07:34:32;;;;;;;47.47;25.42;;;8.40;99.90;;;;;;5052789;28;20185;-73
2020/12/13 07:37:00;;;;;;;45.10;25.95;;;8.30;99.90;;;;;;5052795;28;20196;-74
2020/12/13 07:39:29;;;;;;;44.03;23.80;;;8.30;99.90;;;;;;5034938;28;20184;-74
2020/12/13 07:41:58;;;;;;;38.20;22.55;;;8.30;99.90;;;;;;5051400;28;20191;-73
2020/12/13 07:44:32;;;;;;;42.00;24.98;;;8.30;99.90;;;;;;5036419;28;20613;-73
2020/12/13 07:47:01;;;;;;;43.43;24.17;;;8.30;99.90;;;;;;5035325;28;20176;-73
2020/12/13 07:49:27;;;;;;;41.22;23.45;;;8.40;99.90;;;;;;5035294;28;20403;-73
2020/12/13 07:51:56;;;;;;;36.95;23.20;;;8.30;99.90;;;;;;5035115;28;20663;-73
2020/12/13 07:54:28;;;;;;;40.20;22.20;;;8.30;99.90;;;;;;5052381;28;20180;-73
2020/12/13 07:56:56;;;;;;;44.03;23.43;;;8.30;99.90;;;;;;5052760;28;20540;-73
2020/12/13 07:59:24;;;;;;;39.95;22.98;;;8.30;99.90;;;;;;5053135;28;20903;-73
2020/12/13 08:01:54;;;;;;;32.13;20.07;;;8.30;99.90;;;;;;5051713;28;20544;-73
2020/12/13 08:04:37;;;;;;;33.33;21.30;;;8.30;99.90;;;;;;5052075;28;20864;-73
2020/12/13 08:07:04;;;;;;;28.17;18.38;;;8.20;99.90;;;;;;5052491;28;20200;-73
2020/12/13 08:09:31;;;;;;;37.10;20.33;;;8.30;99.90;;;;;;5068161;28;20175;-73
2020/12/13 08:11:57;;;;;;;32.47;19.27;;;8.30;99.90;;;;;;5002135;28;20184;-73
2020/12/13 08:14:25;;;;;;;31.98;19.70;;;8.30;99.90;;;;;;5052410;28;20410;-73
2020/12/13 08:16:58;;;;;;;29.75;17.38;;;8.30;99.90;;;;;;5051279;28;20283;-73
2020/12/13 08:19:35;;;;;;;23.92;17.67;;;8.30;99.90;;;;;;5034594;28;20184;-73
2020/12/13 08:22:23;;;;;;;36.80;19.83;;;8.30;99.90;;;;;;5034684;28;20184;-73
2020/12/13 08:24:57;;;;;;;27.07;18.83;;;8.40;99.90;;;;;;5017992;28;21066;-74
2020/12/13 08:27:28;;;;;;;34.08;19.80;;;8.40;99.90;;;;;;5046707;28;20466;-74
2020/12/13 08:29:58;;;;;;;42.80;24.20;;;8.40;99.90;;;;;;5023259;28;20176;-74
2020/12/13 08:32:29;;;;;;;40.47;22.60;;;8.40;99.90;;;;;;5055303;28;20403;-74
2020/12/13 08:35:07;;;;;;;39.88;22.83;;;8.40;99.90;;;;;;5055208;28;20196;-74
2020/12/13 08:37:33;;;;;;;37.53;23.30;;;8.40;99.90;;;;;;5072113;28;20664;-73
2020/12/13 08:40:37;;;;;;;33.33;17.67;;;8.30;99.90;;;;;;5055090;28;20164;-74
2020/12/13 08:43:07;;;;;;;29.98;16.90;;;8.30;99.90;;;;;;5054892;28;20183;-74
2020/12/13 08:45:34;;;;;;;33.33;20.40;;;8.30;99.90;;;;;;5038134;28;20322;-74
2020/12/13 08:48:05;;;;;;;30.70;16.77;;;8.30;99.90;;;;;;5053916;28;20461;-74
2020/12/13 08:50:39;;;;;;;25.03;16.33;;;8.30;99.90;;;;;;5054221;28;20160;-74
2020/12/13 08:53:26;;;;;;;25.30;15.63;;;8.20;99.90;;;;;;5054443;28;20407;-74
2020/12/13 08:56:09;;;;;;;23.40;15.38;;;8.20;99.90;;;;;;5055850;28;20202;-74
2020/12/13 08:58:57;;;;;;;23.23;14.87;;;8.30;99.90;;;;;;5055842;28;20161;-74
2020/12/13 09:04:25;;;;;;;22.63;13.23;;;8.30;99.90;;;;;;5029257;28;20820;-74
2020/12/13 09:07:01;;;;;;;25.08;14.02;;;8.30;99.90;;;;;;5055450;28;20169;-74
2020/12/13 09:09:34;;;;;;;24.77;11.93;;;8.30;99.90;;;;;;5054681;28;20180;-74
2020/12/13 09:12:03;;;;;;;24.63;13.47;;;8.30;99.90;;;;;;5055449;28;20167;-74
2020/12/13 09:14:34;;;;;;;23.73;12.77;;;8.20;99.90;;;;;;5053290;28;20414;-74
2020/12/13 09:17:01;;;;;;;23.98;11.48;;;8.30;99.90;;;;;;5036959;28;20176;-74
2020/12/13 09:19:34;;;;;;;21.90;12.13;;;8.30;99.90;;;;;;5036745;28;20268;-74
2020/12/13 09:22:04;;;;;;;23.03;13.43;;;8.30;99.90;;;;;;5077622;22;20891;-90
2020/12/13 09:24:56;;;;;;;22.47;13.33;;;8.40;99.90;;;;;;4984471;28;20527;-90
2020/12/13 09:27:23;;;;;;;25.00;13.70;;;8.40;99.90;;;;;;4999196;28;20405;-91
2020/12/13 09:29:50;;;;;;;26.48;13.27;;;8.40;99.90;;;;;;4998610;28;20874;-89
2020/12/13 09:32:18;;;;;;;21.00;12.13;;;8.40;99.90;;;;;;5009803;28;20208;-91
2020/12/13 09:34:47;;;;;;;23.37;12.73;;;8.40;99.90;;;;;;5017646;28;20540;-92
2020/12/13 09:37:16;;;;;;;22.67;12.57;;;8.40;99.90;;;;;;5000736;28;20420;-92
2020/12/13 09:39:42;;;;;;;17.15;12.70;;;8.40;99.90;;;;;;5016554;28;20448;-92
2020/12/13 09:42:12;;;;;;;21.40;13.63;;;8.40;99.90;;;;;;5000707;28;20189;-91
2020/12/13 09:44:38;;;;;;;21.27;12.30;;;8.40;99.90;;;;;;4999941;28;20472;-91
2020/12/13 09:47:05;;;;;;;21.70;11.60;;;8.50;99.90;;;;;;5033174;28;20582;-90
2020/12/13 09:49:32;;;;;;;16.90;11.95;;;8.50;99.90;;;;;;5017553;28;20889;-91
2020/12/13 09:52:28;;;;;;;23.00;11.82;;;8.50;99.90;;;;;;5017520;28;20339;-91
2020/12/13 09:54:54;;;;;;;19.33;12.07;;;8.60;99.90;;;;;;5000302;28;20666;-91
2020/12/13 09:58:24;;;;;;;21.13;12.37;;;8.60;99.90;;;;;;4968179;28;20490;-91
2020/12/13 10:00:50;;;;;;;22.67;12.07;;;8.60;99.90;;;;;;4984123;28;20444;-91
2020/12/13 10:03:18;;;;;;;18.40;11.80;;;8.70;99.90;;;;;;5000246;28;21012;-91
2020/12/13 10:11:24;;;;;;;18.63;12.40;;;8.90;99.90;;;;;;4957046;29;20515;-90
2020/12/13 10:13:52;;;;;;;20.30;10.90;;;8.90;99.90;;;;;;4956585;29;20494;-90
2020/12/13 10:16:18;;;;;;;17.13;11.60;;;8.90;99.90;;;;;;4956672;28;20435;-91
2020/12/13 10:18:46;;;;;;;16.73;9.80;;;8.90;99.90;;;;;;4956710;28;20431;-90
2020/12/13 10:21:12;;;;;;;21.80;11.43;;;9.00;99.90;;;;;;4956420;29;20428;-88
2020/12/13 10:23:38;;;;;;;17.13;10.43;;;9.00;99.90;;;;;;4941718;29;21019;-90
2020/12/13 10:26:04;;;;;;;21.03;12.43;;;8.90;99.90;;;;;;4936979;29;20456;-89
2020/12/13 10:28:33;;;;;;;18.23;11.50;;;8.90;99.90;;;;;;4937334;29;20460;-90
2020/12/13 10:31:01;;;;;;;24.77;14.33;;;8.80;99.90;;;;;;4936200;29;20429;-89
2020/12/13 10:33:29;;;;;;;18.13;12.27;;;8.90;99.90;;;;;;4937056;29;20435;-90
2020/12/13 10:36:09;;;;;;;16.40;11.07;;;8.80;99.90;;;;;;4937555;29;20440;-90
2020/12/13 10:38:35;;;;;;;16.93;10.00;;;8.80;99.90;;;;;;4937102;29;20428;-91
2020/12/13 10:41:04;;;;;;;16.87;11.37;;;8.80;99.90;;;;;;4937306;29;20436;-91
2020/12/13 10:43:32;;;;;;;21.83;12.37;;;8.90;99.90;;;;;;4937098;29;20479;-91
2020/12/13 10:45:58;;;;;;;19.00;9.77;;;8.90;99.90;;;;;;4989096;28;20914;-91
2020/12/13 10:48:26;;;;;;;22.03;13.23;;;8.80;99.90;;;;;;4995778;28;20464;-90
2020/12/13 10:50:55;;;;;;;13.80;9.70;;;8.80;99.90;;;;;;4995636;28;20480;-91
2020/12/13 10:53:21;;;;;;;17.00;10.37;;;8.80;99.90;;;;;;4996552;28;20444;-90
2020/12/13 10:55:49;;;;;;;18.87;11.97;;;8.80;99.90;;;;;;4996323;28;20879;-90
2020/12/13 10:58:15;;;;;;;19.30;11.17;;;8.90;99.90;;;;;;4979912;28;20774;-91
2020/12/13 11:00:43;;;;;;;22.27;12.80;;;8.90;99.90;;;;;;4979712;28;20446;-90
2020/12/13 11:04:00;;;;;;;14.60;9.77;;;8.90;99.90;;;;;;4995946;28;20450;-91
2020/12/13 11:06:28;;;;;;;14.70;9.33;;;9.00;99.90;;;;;;4963280;28;20476;-90
2020/12/13 11:08:54;;;;;;;13.60;9.80;;;9.00;99.90;;;;;;4995695;28;20827;-90
2020/12/13 11:11:21;;;;;;;19.97;10.43;;;9.00;99.90;;;;;;4995000;28;20421;-90
2020/12/13 11:14:07;;;;;;;16.90;10.37;;;9.10;99.90;;;;;;4995990;28;20763;-90
2020/12/13 11:16:35;;;;;;;19.47;11.27;;;9.10;99.90;;;;;;4978489;28;20437;-90
2020/12/13 11:19:05;;;;;;;18.23;11.70;;;9.20;99.90;;;;;;4978779;28;20456;-90
2020/12/13 11:21:34;;;;;;;23.17;13.60;;;9.20;99.90;;;;;;4995064;28;20425;-89
2020/12/13 11:24:04;;;;;;;22.23;10.40;;;9.30;99.90;;;;;;4979750;28;20487;-90
2020/12/13 11:26:35;;;;;;;15.97;10.50;;;9.30;99.90;;;;;;5015337;28;20424;-90
2020/12/13 11:29:03;;;;;;;21.70;10.57;;;9.30;99.90;;;;;;4998545;28;20392;-91
2020/12/13 11:31:29;;;;;;;22.50;11.90;;;9.40;99.90;;;;;;4986882;28;20442;-90
2020/12/13 11:33:55;;;;;;;19.63;10.40;;;9.40;99.90;;;;;;4978945;28;20421;-89
2020/12/13 11:36:21;;;;;;;14.77;9.50;;;9.50;99.90;;;;;;4975827;28;20453;-91
2020/12/13 11:38:48;;;;;;;14.30;10.40;;;9.50;99.90;;;;;;4996146;28;20783;-91
2020/12/13 11:41:14;;;;;;;14.03;7.90;;;9.60;99.90;;;;;;4995747;28;20428;-90
2020/12/13 11:43:40;;;;;;;10.17;8.53;;;9.60;99.90;;;;;;4995644;28;20461;-88
2020/12/13 11:46:08;;;;;;;19.43;8.80;;;9.50;99.90;;;;;;4978582;28;20776;-89
2020/12/13 11:48:34;;;;;;;16.30;9.43;;;9.50;99.90;;;;;;4995921;28;20911;-91
2020/12/13 11:51:00;;;;;;;16.40;10.23;;;9.40;99.90;;;;;;4996366;28;20480;-90
2020/12/13 11:53:26;;;;;;;20.20;11.23;;;9.40;99.90;;;;;;4978758;28;20516;-90
2020/12/13 11:55:55;;;;;;;10.90;7.93;;;9.30;99.90;;;;;;4995936;28;20491;-91
2020/12/13 11:58:21;;;;;;;13.00;7.57;;;9.30;99.90;;;;;;4995818;28;20770;-90
2020/12/13 12:00:51;;;;;;;10.00;7.63;;;9.30;99.90;;;;;;4996253;28;20950;-91
2020/12/13 12:03:17;;;;;;;12.10;7.87;;;9.30;99.90;;;;;;4984916;28;20507;-91
2020/12/13 12:05:45;;;;;;;11.07;7.00;;;9.30;99.90;;;;;;4999783;28;20421;-92
2020/12/13 12:08:11;;;;;;;11.63;6.90;;;9.30;99.90;;;;;;5001208;28;20459;-89
2020/12/13 12:14:05;;;;;;;6.43;5.30;;;9.20;99.90;;;;;;4999216;28;20484;-90
2020/12/13 12:16:35;;;;;;;8.67;5.27;;;9.20;99.90;;;;;;4982826;28;20401;-91
2020/12/13 12:19:01;;;;;;;11.13;5.07;;;9.20;99.90;;;;;;4982641;28;20425;-92
2020/12/13 12:21:31;;;;;;;5.57;3.87;;;9.30;99.90;;;;;;4998087;28;20429;-91
2020/12/13 12:23:59;;;;;;;5.70;4.20;;;9.30;99.90;;;;;;5014690;28;20484;-91
2020/12/13 12:26:32;;;;;;;10.53;4.30;;;9.30;99.90;;;;;;5001649;28;20460;-91
2020/12/13 12:29:02;;;;;;;7.70;4.13;;;9.40;99.90;;;;;;5018932;28;20900;-91
2020/12/13 12:31:30;;;;;;;7.20;4.10;;;9.50;99.90;;;;;;5001858;28;20416;-89
2020/12/13 12:33:58;;;;;;;9.37;6.30;;;9.50;99.90;;;;;;4985432;28;20491;-90
2020/12/13 12:36:26;;;;;;;11.70;6.40;;;9.50;99.90;;;;;;5001639;28;20436;-90
2020/12/13 12:38:55;;;;;;;8.47;6.00;;;9.50;99.90;;;;;;4985914;28;20892;-91
2020/12/13 12:41:25;;;;;;;11.40;5.47;;;9.50;99.90;;;;;;5018722;28;20893;-91
2020/12/13 12:43:51;;;;;;;6.43;4.80;;;9.40;99.90;;;;;;5018372;28;20475;-91
2020/12/13 12:46:18;;;;;;;9.10;6.80;;;9.50;99.90;;;;;;5018375;28;20429;-91
2020/12/13 12:48:47;;;;;;;14.43;7.47;;;9.50;99.90;;;;;;5001404;28;20519;-91
2020/12/13 12:51:18;;;;;;;16.30;10.83;;;9.50;99.90;;;;;;4984983;28;20432;-91
2020/12/13 12:53:45;;;;;;;16.10;9.37;;;9.50;99.90;;;;;;5018361;28;20832;-91
2020/12/13 12:56:11;;;;;;;10.33;7.00;;;9.60;99.90;;;;;;4997698;28;20437;-89
2020/12/13 12:59:02;;;;;;;7.47;5.90;;;9.60;99.90;;;;;;4981665;28;20433;-90
2020/12/13 13:01:53;;;;;;;10.00;7.57;;;9.60;99.90;;;;;;5013923;28;20450;-91
2020/12/13 13:04:25;;;;;;;9.00;5.33;;;9.60;99.90;;;;;;5018188;28;20460;-91
2020/12/13 13:09:30;;;;;;;8.97;6.53;;;9.60;99.90;;;;;;5001106;28;20515;-91
2020/12/13 13:12:28;;;;;;;13.10;8.57;;;9.60;99.90;;;;;;5017303;28;20515;-91